createdAt,value
2023-01-05T00:00:21.118Z,99.27
2023-01-05T00:02:28.630Z,99.20
2023-01-05T00:04:30.735Z,99.13
2023-01-05T00:06:34.284Z,98.96
2023-01-05T00:08:38.945Z,98.66
2023-01-05T00:10:59.622Z,98.16
2023-01-05T00:13:22.023Z,98.51
2023-01-05T00:15:46.339Z,98.75
2023-01-05T00:18:07.785Z,98.24
2023-01-05T00:20:41.597Z,98.78
2023-01-05T00:22:49.411Z,98.08
2023-01-05T00:24:53.337Z,97.48
2023-01-05T00:26:56.147Z,97.32
2023-01-05T00:29:03.846Z,97.25
2023-01-05T00:31:09.001Z,97.10
2023-01-05T00:33:16.528Z,97.13
2023-01-05T00:35:18.921Z,97.00
2023-01-05T00:37:24.612Z,97.02
2023-01-05T00:39:26.480Z,97.41
2023-01-05T00:41:30.416Z,97.19
2023-01-05T00:43:32.305Z,96.48
2023-01-05T00:45:34.307Z,96.59
2023-01-05T00:47:36.403Z,96.56
2023-01-05T00:49:39.380Z,96.25
2023-01-05T00:51:47.190Z,96.04
2023-01-05T00:53:49.281Z,96.29
2023-01-05T00:56:00.417Z,96.32
2023-01-05T00:58:03.448Z,96.31
2023-01-05T01:00:11.256Z,96.40
2023-01-05T01:02:14.667Z,96.09
2023-01-05T01:04:17.886Z,96.02
2023-01-05T01:06:20.340Z,96.18
2023-01-05T01:08:24.238Z,96.09
2023-01-05T01:10:26.187Z,96.42
2023-01-05T01:12:28.078Z,96.65
2023-01-05T01:14:31.052Z,96.74
2023-01-05T01:16:34.935Z,97.48
2023-01-05T01:18:37.111Z,97.53
2023-01-05T01:20:41.064Z,98.49
2023-01-05T01:22:43.085Z,98.62
2023-01-05T01:24:44.995Z,98.89
2023-01-05T01:26:48.023Z,99.42
2023-01-05T01:28:49.997Z,99.27
2023-01-05T01:30:52.027Z,99.63
2023-01-05T01:32:53.942Z,100.00
2023-01-05T01:34:56.054Z,99.75
2023-01-05T01:36:58.020Z,99.95
2023-01-05T01:39:00.402Z,100.00
2023-01-05T01:41:03.283Z,100.00
2023-01-05T01:43:17.009Z,100.00
2023-01-05T01:45:23.186Z,100.00
2023-01-05T01:47:34.021Z,100.00
2023-01-05T01:49:39.099Z,100.00
2023-01-05T01:51:47.272Z,100.00
2023-01-05T01:53:53.291Z,100.00
2023-01-05T01:55:58.223Z,100.00
2023-01-05T01:58:01.910Z,100.00
2023-01-05T02:00:08.915Z,100.00
2023-01-05T02:02:12.730Z,99.36
2023-01-05T02:04:16.921Z,99.00
2023-01-05T02:06:18.944Z,99.08
2023-01-05T02:08:31.500Z,99.05
2023-01-05T02:10:49.303Z,98.79
2023-01-05T02:13:15.037Z,99.01
2023-01-05T02:15:23.836Z,99.11
2023-01-05T02:17:44.597Z,98.22
2023-01-05T02:20:14.455Z,98.62
2023-01-05T02:22:27.032Z,97.89
2023-01-05T02:24:28.965Z,97.70
2023-01-05T02:26:54.316Z,97.87
2023-01-05T02:29:21.310Z,97.39
2023-01-05T02:31:29.273Z,96.86
2023-01-05T02:33:43.790Z,97.14
2023-01-05T02:36:04.333Z,96.97
2023-01-05T02:38:22.103Z,96.48
2023-01-05T02:40:42.555Z,96.84
2023-01-05T02:42:52.901Z,96.95
2023-01-05T02:44:55.000Z,97.43
2023-01-05T02:47:26.129Z,96.35
2023-01-05T02:49:29.916Z,96.38
2023-01-05T02:51:47.383Z,95.75
2023-01-05T02:54:00.404Z,96.09
2023-01-05T02:56:42.455Z,95.65
2023-01-05T02:58:45.269Z,95.65
2023-01-05T03:00:55.727Z,95.74
2023-01-05T03:03:06.110Z,95.74
2023-01-05T03:05:13.049Z,95.39
2023-01-05T03:07:19.268Z,95.73
2023-01-05T03:09:26.133Z,95.51
2023-01-05T03:12:18.330Z,96.21
2023-01-05T03:14:32.545Z,96.28
2023-01-05T03:16:38.031Z,97.02
2023-01-05T03:19:00.734Z,97.08
2023-01-05T03:21:03.834Z,97.25
2023-01-05T03:23:32.561Z,97.08
2023-01-05T03:25:57.973Z,97.96
2023-01-05T03:28:21.938Z,98.33
2023-01-05T03:30:52.781Z,97.90
2023-01-05T03:33:22.282Z,97.43
2023-01-05T03:35:34.808Z,96.44
2023-01-05T03:37:42.541Z,97.13
2023-01-05T03:39:47.586Z,96.21
2023-01-05T03:41:50.968Z,96.03
2023-01-05T03:43:54.122Z,96.51
2023-01-05T03:45:57.716Z,96.36
2023-01-05T03:48:00.708Z,96.83
2023-01-05T03:50:06.158Z,96.28
2023-01-05T03:52:10.090Z,97.15
2023-01-05T03:54:15.052Z,97.66
2023-01-05T03:56:17.919Z,97.75
2023-01-05T03:58:19.837Z,97.36
2023-01-05T04:00:26.914Z,97.26
2023-01-05T04:02:29.925Z,97.49
2023-01-05T04:04:33.013Z,97.76
2023-01-05T04:06:34.914Z,97.70
2023-01-05T04:08:38.869Z,97.27
2023-01-05T04:10:41.893Z,97.78
2023-01-05T04:12:44.495Z,98.16
2023-01-05T04:14:46.432Z,97.62
2023-01-05T04:16:48.432Z,97.86
2023-01-05T04:18:50.561Z,98.18
2023-01-05T04:20:53.526Z,98.20
2023-01-05T04:22:56.475Z,97.83
2023-01-05T04:25:00.423Z,97.59
2023-01-05T04:27:03.431Z,97.93
2023-01-05T04:29:06.614Z,97.16
2023-01-05T04:31:10.723Z,97.27
2023-01-05T04:33:15.889Z,98.04
2023-01-05T04:35:18.847Z,98.31
2023-01-05T04:37:20.750Z,98.86
2023-01-05T04:39:24.933Z,99.28
2023-01-05T04:41:27.891Z,99.51
2023-01-05T04:43:35.771Z,99.85
2023-01-05T04:45:38.806Z,99.92
2023-01-05T04:47:40.756Z,100.00
2023-01-05T04:49:43.034Z,100.00
2023-01-05T04:51:45.009Z,100.00
2023-01-05T04:53:51.192Z,100.00
2023-01-05T04:56:00.780Z,100.00
2023-01-05T04:58:05.635Z,100.00
2023-01-05T05:00:12.502Z,100.00
2023-01-05T05:02:14.849Z,100.00
2023-01-05T05:04:17.980Z,100.00
2023-01-05T05:06:20.122Z,100.00
2023-01-05T05:08:22.038Z,100.00
2023-01-05T05:10:27.279Z,100.00
2023-01-05T05:12:29.211Z,100.00
2023-01-05T05:14:31.275Z,99.74
2023-01-05T05:16:35.157Z,100.00
2023-01-05T05:18:39.097Z,100.00
2023-01-05T05:20:44.189Z,100.00
2023-01-05T05:22:52.893Z,100.00
2023-01-05T05:24:54.781Z,99.66
2023-01-05T05:26:57.568Z,99.04
2023-01-05T05:29:00.024Z,98.55
2023-01-05T05:31:08.025Z,97.27
2023-01-05T05:33:10.221Z,96.22
2023-01-05T05:35:14.431Z,96.10
2023-01-05T05:37:19.482Z,95.77
2023-01-05T05:39:21.514Z,95.78
2023-01-05T05:41:23.444Z,95.26
2023-01-05T05:43:25.283Z,95.39
2023-01-05T05:45:29.327Z,95.42
2023-01-05T05:47:31.340Z,94.75
2023-01-05T05:49:33.414Z,95.35
2023-01-05T05:51:35.929Z,95.09
2023-01-05T05:53:37.892Z,95.34
2023-01-05T05:55:39.925Z,94.83
2023-01-05T05:57:41.950Z,94.50
2023-01-05T05:59:46.953Z,95.31
2023-01-05T06:01:52.787Z,94.76
2023-01-05T06:03:56.055Z,95.20
2023-01-05T06:06:00.104Z,94.56
2023-01-05T06:08:03.191Z,94.82
2023-01-05T06:10:06.797Z,94.74
2023-01-05T06:12:14.923Z,94.65
2023-01-05T06:14:22.656Z,93.69
2023-01-05T06:16:25.592Z,93.98
2023-01-05T06:18:28.613Z,94.23
2023-01-05T06:20:31.740Z,94.25
2023-01-05T06:22:33.699Z,94.18
2023-01-05T06:24:35.674Z,94.14
2023-01-05T06:26:39.671Z,94.75
2023-01-05T06:28:42.900Z,94.80
2023-01-05T06:30:47.922Z,94.70
2023-01-05T06:32:55.887Z,95.68
2023-01-05T06:35:03.944Z,95.40
2023-01-05T06:37:30.628Z,95.34
2023-01-05T06:39:34.563Z,95.83
2023-01-05T06:41:36.590Z,95.61
2023-01-05T06:43:41.756Z,95.76
2023-01-05T06:45:46.215Z,95.53
2023-01-05T06:47:52.569Z,95.38
2023-01-05T06:49:55.517Z,95.77
2023-01-05T06:51:57.663Z,95.76
2023-01-05T06:54:02.737Z,95.51
2023-01-05T06:56:07.088Z,95.87
2023-01-05T06:58:09.087Z,95.66
2023-01-05T07:00:20.613Z,95.87
2023-01-05T07:02:23.541Z,96.30
2023-01-05T07:04:28.671Z,96.58
2023-01-05T07:06:31.146Z,96.93
2023-01-05T07:08:34.204Z,97.06
2023-01-05T07:10:36.443Z,97.19
2023-01-05T07:12:38.444Z,97.01
2023-01-05T07:14:42.469Z,97.51
2023-01-05T07:16:44.441Z,97.57
2023-01-05T07:18:46.429Z,97.32
2023-01-05T07:20:50.505Z,97.65
2023-01-05T07:22:53.451Z,97.53
2023-01-05T07:25:03.256Z,97.45
2023-01-05T07:27:12.723Z,97.08
2023-01-05T07:29:14.802Z,96.91
2023-01-05T07:31:18.975Z,96.60
2023-01-05T07:33:21.057Z,97.20
2023-01-05T07:35:25.391Z,96.81
2023-01-05T07:37:27.792Z,96.34
2023-01-05T07:39:29.825Z,96.22
2023-01-05T07:41:33.285Z,95.87
2023-01-05T07:43:36.346Z,96.23
2023-01-05T07:45:52.574Z,95.60
2023-01-05T07:47:54.665Z,95.38
2023-01-05T07:49:59.343Z,95.03
2023-01-05T07:52:01.295Z,95.17
2023-01-05T07:54:03.334Z,95.47
2023-01-05T07:56:09.026Z,95.37
2023-01-05T07:58:18.521Z,94.95
2023-01-05T08:00:20.737Z,94.79
2023-01-05T08:02:23.844Z,94.86
2023-01-05T08:04:29.416Z,94.56
2023-01-05T08:06:35.071Z,94.98
2023-01-05T08:08:41.712Z,94.68
2023-01-05T08:10:44.932Z,93.79
2023-01-05T08:13:31.567Z,93.83
2023-01-05T08:15:36.866Z,93.97
2023-01-05T08:17:57.382Z,93.57
2023-01-05T08:20:05.690Z,92.49
2023-01-05T08:22:08.827Z,92.39
2023-01-05T08:24:11.354Z,92.14
2023-01-05T08:26:20.626Z,91.25
2023-01-05T08:28:27.150Z,91.19
2023-01-05T08:30:34.340Z,91.75
2023-01-05T08:32:36.405Z,91.75
2023-01-05T08:34:40.372Z,92.01
2023-01-05T08:36:43.527Z,91.94
2023-01-05T08:38:56.335Z,91.56
2023-01-05T08:41:02.542Z,91.50
2023-01-05T08:43:06.871Z,91.31
2023-01-05T08:45:12.684Z,91.32
2023-01-05T08:47:14.622Z,91.11
2023-01-05T08:49:20.369Z,91.11
2023-01-05T08:51:24.061Z,91.40
2023-01-05T08:53:31.212Z,90.86
2023-01-05T08:55:34.216Z,91.30
2023-01-05T08:57:37.186Z,90.80
2023-01-05T08:59:39.222Z,90.63
2023-01-05T09:01:42.580Z,90.04
2023-01-05T09:03:46.671Z,89.97
2023-01-05T09:05:48.907Z,89.96
2023-01-05T09:08:01.003Z,89.41
2023-01-05T09:10:08.665Z,89.09
2023-01-05T09:12:14.788Z,88.96
2023-01-05T09:14:17.099Z,89.46
2023-01-05T09:18:45.511Z,87.66
2023-01-05T09:20:56.385Z,87.85
2023-01-05T09:22:59.509Z,87.36
2023-01-05T09:25:03.470Z,87.60
2023-01-05T09:27:07.987Z,87.30
2023-01-05T09:29:13.520Z,87.41
2023-01-05T09:31:24.359Z,86.21
2023-01-05T09:33:27.316Z,87.02
2023-01-05T09:35:29.421Z,88.61
2023-01-05T09:37:31.307Z,88.62
2023-01-05T09:39:34.315Z,88.39
2023-01-05T09:41:51.698Z,89.16
2023-01-05T09:44:07.418Z,89.36
2023-01-05T09:46:19.850Z,89.09
2023-01-05T09:48:25.439Z,89.29
2023-01-05T09:50:34.505Z,89.11
2023-01-05T09:52:38.656Z,89.53
2023-01-05T09:54:45.830Z,89.48
2023-01-05T09:59:19.757Z,88.67
2023-01-05T10:01:23.139Z,88.36
2023-01-05T10:04:02.324Z,88.42
2023-01-05T10:05:50.484Z,87.51
2023-01-05T10:08:02.003Z,87.00
2023-01-05T10:10:18.044Z,87.08
2023-01-05T10:12:47.868Z,84.33
2023-01-05T10:15:07.223Z,84.04
2023-01-05T10:19:42.419Z,82.83
2023-01-05T10:22:13.186Z,82.68
2023-01-05T10:24:27.243Z,82.36
2023-01-05T10:27:23.064Z,82.17
2023-01-05T10:29:17.597Z,81.80
2023-01-05T10:31:29.251Z,81.25
2023-01-05T10:33:57.925Z,82.04
2023-01-05T10:36:12.050Z,82.10
2023-01-05T10:38:54.669Z,82.22
2023-01-05T10:41:21.579Z,82.57
2023-01-05T10:44:06.285Z,82.49
2023-01-05T10:46:32.138Z,82.57
2023-01-05T10:48:36.592Z,81.98
2023-01-05T10:50:41.416Z,82.31
2023-01-05T10:53:00.458Z,82.55
2023-01-05T10:55:03.335Z,83.13
2023-01-05T10:57:37.256Z,85.00
2023-01-05T11:00:00.718Z,85.00
2023-01-05T11:02:04.197Z,86.14
2023-01-05T11:06:38.198Z,87.65
2023-01-05T11:08:40.317Z,87.80
2023-01-05T11:11:07.695Z,87.32
2023-01-05T11:13:27.382Z,85.97
2023-01-05T11:15:32.656Z,84.21
2023-01-05T11:17:37.735Z,82.53
2023-01-05T11:19:47.785Z,82.75
2023-01-05T11:22:01.629Z,81.52
2023-01-05T11:24:05.183Z,80.17
2023-01-05T11:26:23.722Z,80.45
2023-01-05T11:28:27.695Z,79.61
2023-01-05T11:30:32.041Z,79.85
2023-01-05T11:32:36.960Z,78.09
2023-01-05T11:34:38.955Z,78.58
2023-01-05T11:36:41.135Z,78.90
2023-01-05T11:38:51.431Z,78.39
2023-01-05T11:40:56.391Z,78.20
2023-01-05T11:43:00.061Z,79.22
2023-01-05T11:45:19.813Z,78.83
2023-01-05T11:47:25.625Z,78.58
2023-01-05T11:49:27.649Z,78.79
2023-01-05T11:51:36.314Z,78.74
2023-01-05T11:53:41.421Z,79.15
2023-01-05T11:55:44.451Z,79.29
2023-01-05T11:58:00.127Z,78.84
2023-01-05T12:00:03.928Z,78.65
2023-01-05T12:02:30.764Z,79.27
2023-01-05T12:05:06.692Z,80.43
2023-01-05T12:07:28.798Z,81.03
2023-01-05T12:09:36.222Z,80.86
2023-01-05T12:11:53.364Z,81.38
2023-01-05T12:14:38.283Z,81.82
2023-01-05T12:16:48.478Z,81.90
2023-01-05T12:19:18.798Z,80.91
2023-01-05T12:21:28.129Z,81.38
2023-01-05T12:23:47.234Z,80.71
2023-01-05T12:25:59.502Z,80.14
2023-01-05T12:28:05.485Z,80.02
2023-01-05T12:34:01.488Z,78.80
2023-01-05T12:35:29.691Z,77.67
2023-01-05T12:37:54.707Z,77.33
2023-01-05T12:40:11.780Z,77.21
2023-01-05T12:42:41.523Z,78.14
2023-01-05T12:44:49.563Z,78.49
2023-01-05T12:47:22.416Z,78.99
2023-01-05T12:49:59.571Z,79.12
2023-01-05T12:52:17.405Z,79.14
2023-01-05T12:54:31.222Z,78.19
2023-01-05T12:56:54.016Z,77.84
2023-01-05T12:59:11.277Z,76.87
2023-01-05T13:01:22.770Z,75.97
2023-01-05T13:03:40.585Z,75.98
2023-01-05T13:06:31.577Z,74.83
2023-01-05T13:09:04.016Z,74.94
2023-01-05T13:11:29.948Z,75.73
2023-01-05T13:13:52.740Z,74.83
2023-01-05T13:16:02.928Z,75.54
2023-01-05T13:18:07.357Z,75.54
2023-01-05T13:20:21.392Z,76.38
2023-01-05T13:22:28.590Z,76.26
2023-01-05T13:24:40.251Z,74.73
2023-01-05T13:26:43.183Z,75.82
2023-01-05T13:28:56.174Z,75.89
2023-01-05T13:31:13.873Z,76.35
2023-01-05T13:33:38.239Z,76.40
2023-01-05T13:36:00.134Z,76.75
2023-01-05T13:38:23.861Z,77.09
2023-01-05T13:40:47.637Z,77.37
2023-01-05T13:45:10.472Z,77.40
2023-01-05T13:47:23.801Z,77.36
2023-01-05T13:49:41.105Z,77.62
2023-01-05T13:52:00.299Z,77.11
2023-01-05T13:54:13.551Z,77.48
2023-01-05T13:56:30.446Z,77.95
2023-01-05T13:58:51.769Z,77.90
2023-01-05T14:00:54.501Z,78.03
2023-01-05T14:03:07.655Z,77.63
2023-01-05T14:05:30.519Z,77.71
2023-01-05T14:07:33.779Z,78.05
2023-01-05T14:09:42.914Z,78.35
2023-01-05T14:12:15.134Z,77.85
2023-01-05T14:16:35.517Z,77.15
2023-01-05T14:19:13.057Z,77.53
2023-01-05T14:21:56.760Z,78.19
2023-01-05T14:23:59.779Z,77.99
2023-01-05T14:26:07.011Z,77.91
2023-01-05T14:28:30.847Z,78.77
2023-01-05T14:30:32.844Z,78.85
2023-01-05T14:32:37.258Z,79.17
2023-01-05T14:34:48.514Z,79.47
2023-01-05T14:37:02.232Z,79.73
2023-01-05T14:39:21.291Z,79.51
2023-01-05T14:41:26.846Z,79.38
2023-01-05T14:43:35.246Z,79.49
2023-01-05T14:45:39.606Z,79.20
2023-01-05T14:47:47.316Z,80.21
2023-01-05T14:50:03.896Z,80.06
2023-01-05T14:52:16.634Z,80.14
2023-01-05T14:55:05.923Z,80.04
2023-01-05T14:57:48.864Z,80.31
2023-01-05T14:59:57.873Z,80.41
2023-01-05T15:02:19.441Z,80.44
2023-01-05T15:04:33.755Z,80.47
2023-01-05T15:06:55.236Z,80.36
2023-01-05T15:09:23.881Z,80.06
2023-01-05T15:11:44.324Z,80.09
2023-01-05T15:14:20.760Z,80.77
2023-01-05T15:16:56.226Z,80.99
2023-01-05T15:19:28.080Z,79.77
2023-01-05T15:21:48.575Z,80.29
2023-01-05T15:24:26.651Z,80.07
2023-01-05T15:26:46.931Z,79.88
2023-01-05T15:29:11.797Z,79.44
2023-01-05T15:31:32.916Z,79.85
2023-01-05T15:33:46.333Z,80.07
2023-01-05T15:36:02.769Z,81.28
2023-01-05T15:38:29.028Z,82.36
2023-01-05T15:40:32.722Z,82.79
2023-01-05T15:42:46.702Z,84.08
2023-01-05T15:44:51.976Z,84.47
2023-01-05T15:46:56.481Z,85.24
2023-01-05T15:48:59.697Z,85.64
2023-01-05T15:51:02.720Z,85.97
2023-01-05T15:53:04.890Z,86.61
2023-01-05T15:55:19.319Z,87.21
2023-01-05T15:57:22.473Z,87.55
2023-01-05T15:59:31.791Z,87.42
2023-01-05T16:01:38.776Z,87.21
2023-01-05T16:03:42.998Z,86.93
2023-01-05T16:05:45.052Z,87.58
2023-01-05T16:07:55.173Z,88.71
2023-01-05T16:09:57.264Z,89.58
2023-01-05T16:12:06.637Z,90.53
2023-01-05T16:14:29.987Z,91.24
2023-01-05T16:16:52.402Z,90.77
2023-01-05T16:19:02.478Z,89.56
2023-01-05T16:21:31.458Z,88.73
2023-01-05T16:23:44.851Z,89.00
2023-01-05T16:25:53.565Z,89.60
2023-01-05T16:28:03.604Z,89.75
2023-01-05T16:30:28.496Z,87.75
2023-01-05T16:32:41.959Z,88.84
2023-01-05T16:34:43.848Z,88.84
2023-01-05T16:37:08.858Z,89.62
2023-01-05T16:39:22.048Z,88.96
2023-01-05T16:41:26.745Z,85.69
2023-01-05T16:43:35.901Z,85.07
2023-01-05T16:45:37.873Z,85.30
2023-01-05T16:47:41.805Z,85.00
2023-01-05T16:50:01.562Z,85.83
2023-01-05T16:52:07.946Z,85.60
2023-01-05T16:54:23.613Z,85.78
2023-01-05T16:56:35.460Z,87.16
2023-01-05T16:58:38.565Z,85.53
2023-01-05T17:00:40.580Z,84.93
2023-01-05T17:02:49.251Z,85.52
2023-01-05T17:04:52.307Z,85.86
2023-01-05T17:06:58.076Z,85.03
2023-01-05T17:09:01.905Z,85.83
2023-01-05T17:11:07.903Z,85.99
2023-01-05T17:13:20.798Z,86.09
2023-01-05T17:15:28.294Z,86.04
2023-01-05T17:17:30.255Z,85.01
2023-01-05T17:19:35.384Z,85.67
2023-01-05T17:23:47.242Z,85.95
2023-01-05T17:28:03.339Z,85.40
2023-01-05T17:30:18.352Z,85.24
2023-01-05T17:32:20.338Z,85.22
2023-01-05T17:34:23.402Z,84.96
2023-01-05T17:36:34.212Z,84.84
2023-01-05T17:38:36.119Z,85.35
2023-01-05T17:40:38.753Z,86.22
2023-01-05T17:42:43.643Z,86.05
2023-01-05T17:44:45.762Z,86.02
2023-01-05T17:46:49.576Z,85.15
2023-01-05T17:48:51.998Z,84.93
2023-01-05T17:50:54.435Z,83.97
2023-01-05T17:52:58.220Z,84.30
2023-01-05T17:55:00.158Z,83.80
2023-01-05T17:57:02.082Z,84.56
2023-01-05T17:59:05.186Z,83.47
2023-01-05T18:01:07.537Z,83.75
2023-01-05T18:03:10.593Z,83.74
2023-01-05T18:05:14.247Z,83.34
2023-01-05T18:07:16.235Z,82.82
2023-01-05T18:09:18.170Z,83.65
2023-01-05T18:11:20.302Z,83.68
2023-01-05T18:13:23.008Z,83.64
2023-01-05T18:17:29.994Z,84.33
2023-01-05T18:19:33.611Z,84.29
2023-01-05T18:21:35.978Z,84.10
2023-01-05T18:23:38.338Z,84.27
2023-01-05T18:25:40.605Z,83.88
2023-01-05T18:27:45.993Z,84.09
2023-01-05T18:29:52.239Z,83.99
2023-01-05T18:31:55.477Z,83.96
2023-01-05T18:33:57.537Z,83.68
2023-01-05T18:38:12.998Z,83.88
2023-01-05T18:40:16.003Z,83.44
2023-01-05T18:42:18.455Z,83.25
2023-01-05T18:44:20.574Z,84.06
2023-01-05T18:46:23.895Z,84.21
2023-01-05T18:48:26.176Z,84.97
2023-01-05T18:50:29.619Z,85.47
2023-01-05T18:52:32.014Z,85.34
2023-01-05T18:54:35.162Z,86.12
2023-01-05T18:56:37.593Z,87.24
2023-01-05T18:58:39.923Z,87.03
2023-01-05T19:00:43.942Z,87.49
2023-01-05T19:02:47.339Z,87.76
2023-01-05T19:04:49.869Z,88.39
2023-01-05T19:06:52.982Z,88.09
2023-01-05T19:08:55.134Z,88.43
2023-01-05T19:10:57.273Z,88.15
2023-01-05T19:12:59.643Z,87.00
2023-01-05T19:15:01.823Z,87.12
2023-01-05T19:17:04.890Z,86.89
2023-01-05T19:19:16.893Z,85.19
2023-01-05T19:21:23.913Z,84.14
2023-01-05T19:23:26.939Z,84.94
2023-01-05T19:25:30.302Z,85.26
2023-01-05T19:27:32.496Z,84.47
2023-01-05T19:29:34.735Z,84.75
2023-01-05T19:31:38.010Z,84.58
2023-01-05T19:33:41.520Z,83.59
2023-01-05T19:35:46.400Z,83.26
2023-01-05T19:37:48.651Z,84.12
2023-01-05T19:39:50.854Z,83.58
2023-01-05T19:41:53.488Z,82.84
2023-01-05T19:43:57.019Z,82.62
2023-01-05T19:46:01.403Z,82.10
2023-01-05T19:48:03.697Z,82.24
2023-01-05T19:50:08.012Z,81.95
2023-01-05T19:52:10.180Z,82.09
2023-01-05T19:54:14.210Z,80.68
2023-01-05T19:56:16.451Z,81.32
2023-01-05T19:58:18.725Z,81.60
2023-01-05T20:00:21.182Z,81.10
2023-01-05T20:02:23.267Z,81.26
2023-01-05T20:04:25.476Z,81.21
2023-01-05T20:06:30.004Z,80.21
2023-01-05T20:08:33.173Z,80.83
2023-01-05T20:10:38.780Z,79.96
2023-01-05T20:12:41.062Z,80.37
2023-01-05T20:14:44.053Z,81.02
2023-01-05T20:16:58.104Z,80.02
2023-01-05T20:19:00.883Z,80.30
2023-01-05T20:21:05.205Z,80.51
2023-01-05T20:23:07.326Z,80.02
2023-01-05T20:25:10.422Z,80.54
2023-01-05T20:27:16.115Z,80.19
2023-01-05T20:29:21.138Z,79.83
2023-01-05T20:31:27.524Z,79.39
2023-01-05T20:33:30.047Z,79.76
2023-01-05T20:35:32.649Z,79.58
2023-01-05T20:37:34.716Z,80.11
2023-01-05T20:39:38.627Z,79.81
2023-01-05T20:41:43.459Z,80.70
2023-01-05T20:43:48.092Z,80.95
2023-01-05T20:45:50.882Z,80.47
2023-01-05T20:47:52.967Z,80.48
2023-01-05T20:49:56.760Z,80.42
2023-01-05T20:52:03.159Z,79.91
2023-01-05T20:54:09.243Z,79.87
2023-01-05T20:56:16.383Z,79.35
2023-01-05T20:58:21.445Z,79.71
2023-01-05T21:01:10.681Z,79.36
2023-01-05T21:03:20.477Z,78.91
2023-01-05T21:05:24.509Z,79.92
2023-01-05T21:07:41.240Z,79.66
2023-01-05T21:09:56.368Z,80.38
2023-01-05T21:11:59.955Z,80.62
2023-01-05T21:14:07.682Z,79.75
2023-01-05T21:16:45.663Z,80.44
2023-01-05T21:18:52.955Z,79.70
2023-01-05T21:21:32.444Z,80.09
2023-01-05T21:23:51.276Z,80.46
2023-01-05T21:26:07.454Z,79.86
2023-01-05T21:28:11.761Z,79.22
2023-01-05T21:31:04.322Z,79.64
2023-01-05T21:33:15.335Z,79.79
2023-01-05T21:35:41.293Z,79.89
2023-01-05T21:37:45.461Z,80.41
2023-01-05T21:39:57.954Z,81.43
2023-01-05T21:42:22.844Z,81.15
2023-01-05T21:44:24.824Z,81.32
2023-01-05T21:46:43.702Z,81.62
2023-01-05T21:48:46.702Z,82.59
2023-01-05T21:51:18.623Z,82.43
2023-01-05T21:53:38.990Z,82.60
2023-01-05T21:56:12.598Z,80.72
2023-01-05T21:58:20.778Z,79.57
2023-01-05T22:00:29.159Z,79.13
2023-01-05T22:02:41.057Z,78.90
2023-01-05T22:04:44.665Z,78.44
2023-01-05T22:06:57.623Z,77.76
2023-01-05T22:09:01.827Z,78.28
2023-01-05T22:11:05.399Z,78.62
2023-01-05T22:13:11.780Z,78.04
2023-01-05T22:15:14.731Z,78.74
2023-01-05T22:17:16.757Z,78.92
2023-01-05T22:19:18.893Z,79.59
2023-01-05T22:21:26.152Z,79.15
2023-01-05T22:23:32.335Z,80.09
2023-01-05T22:25:46.426Z,79.83
2023-01-05T22:27:51.431Z,80.25
2023-01-05T22:29:55.455Z,79.93
2023-01-05T22:32:07.249Z,80.87
2023-01-05T22:34:23.887Z,80.30
2023-01-05T22:36:33.921Z,80.61
2023-01-05T22:38:42.224Z,80.79
2023-01-05T22:40:44.253Z,81.16
2023-01-05T22:42:58.239Z,81.17
2023-01-05T22:45:07.037Z,80.89
2023-01-05T22:47:11.145Z,81.37
2023-01-05T22:49:17.217Z,80.98
2023-01-05T22:51:37.252Z,81.23
2023-01-05T22:53:56.940Z,81.17
2023-01-05T22:55:59.384Z,80.85
2023-01-05T22:58:06.890Z,80.54
2023-01-05T23:00:20.081Z,81.25
2023-01-05T23:02:23.108Z,80.81
2023-01-05T23:04:35.586Z,81.07
2023-01-05T23:06:37.927Z,80.84
2023-01-05T23:08:41.453Z,81.05
2023-01-05T23:11:01.911Z,81.40
2023-01-05T23:13:11.051Z,81.01
2023-01-05T23:15:15.003Z,80.10
2023-01-05T23:17:17.005Z,79.68
2023-01-05T23:19:19.322Z,78.76
2023-01-05T23:21:37.225Z,78.76
2023-01-05T23:23:55.839Z,78.00
2023-01-05T23:25:58.291Z,78.82
2023-01-05T23:28:00.272Z,78.60
2023-01-05T23:30:06.477Z,78.78
2023-01-05T23:32:08.609Z,78.27
2023-01-05T23:34:11.693Z,78.75
2023-01-05T23:36:16.025Z,79.37
2023-01-05T23:38:19.628Z,79.72
2023-01-05T23:40:21.642Z,79.32
2023-01-05T23:42:43.056Z,79.25
2023-01-05T23:44:54.991Z,79.22
2023-01-05T23:46:58.940Z,79.67
2023-01-05T23:49:01.841Z,79.28
2023-01-05T23:51:13.683Z,79.56
2023-01-05T23:53:16.618Z,79.43
2023-01-05T23:55:20.667Z,79.57
2023-01-05T23:57:22.699Z,79.33
2023-01-05T23:59:38.023Z,80.13
